Ta-fan-lieh, Taiwan
Current Conditions -  °F | °C
As of 10:00 AM on Sunday 23 Nov 2014 (Local Time) from RCKH Reporting Station
Few Clouds Few Clouds  
Wind Chill: 82°   Ceiling: Unl
Heat Index: 85°   Visibility: 6mi
Dew Point: 68°   Wind: 2mph
Humidity: 62%   Direction: NA
Pressure: 30.03"   Gusts: NA
Location:  21.97°N, 120.77°E
Report Text: RCKH 230200Z VRB02KT 9999 FEW018 28/20 Q1017 NOSIG RMK A3005
Loading
Personal Weather Stations






























Interactive Weather Map New forecast layout! Learn more

10-Day Weather Forecast

Advertisements
Track Severe Weather on mobile